Kingman, AZ

11:37 PM MST on September 19, 2014 (GMT -0700)
Southeast Kingman | Change Station
CLOSE
Current Station
Personal Weather Station
Location: Kingman, AZ
Elevation: 3584 ft
Nearby Weather Stations

Elev 3584 ft 35.20 °N, 114.00 °W | Updated 2 minutes ago

Clear
Clear
71.5 °F
Feels Like 77 °F
N
0.0
Wind Variable Wind from SSE
Gusts 0.0 mph

Today
High -- | Low -- °F
--% Chance of Precip.
Yesterday
High -- | Low -- °F
Precip. -- in
6:22 AM 6:37 PM
Waning Crescent, 14% visible
Pressure 29.78 in
Visibility 10.0 miles
Clouds Few 11000 ft
Heat Index 77 °F
Dew Point 47 °F
Humidity 42%
Rainfall 0.00 in
Snow Depth 2 in , 0 in , 1 in
UV 0 out of 12
Pollen 6.70 out of 12
Air Quality Not available.
Flu Activity Not available.
METAR KIGM 200551Z AUTO 18004KT 10SM FEW110 21/08 A2999 RMK AO2 SLP082 T02110083 10311 20200 51010

More Conditions Fewer Conditions

Pressure 29.78 in
Visibility 10.0 miles
Clouds Few 11000 ft
Heat Index 77 °F
Dew Point 47 °F
Humidity 42%
Rainfall 0.00 in
Snow Depth 2 in , 0 in , 1 in
UV 0 out of 12
Pollen 6.70 out of 12
Air Quality Not available.
Flu Activity Not available.
METAR KIGM 200551Z AUTO 18004KT 10SM FEW110 21/08 A2999 RMK AO2 SLP082 T02110083 10311 20200 51010

More Conditions Fewer Conditions

10-Day Weather Forecast

Almanac

Astronomy

Sep. 19, 2014 Rise Set
Actual Time 6:22 AM MST 6:37 PM MST
Civil Twilight 5:56 AM MST 7:02 PM MST
Nautical Twilight 5:26 AM MST 7:32 PM MST
Astronomical Twilight 4:56 AM MST 8:02 PM MST
Moon 2:18 AM MST (9/19) 4:01 PM MST (9/19)
Length of Visible Light 13h 05m
Length of Day
12h 15m
Tomorrow will be 2m 12s shorter.
Waning Crescent, 14% of the Moon is Illuminated
Sep 20
Waning Crescent
Sep 24
New
Oct 1
First Quarter
Oct 8
Full
Oct 15
Last Quarter

Community

WunderPhotos

Upload Photos

1,754,779 photos uploaded!

WunderBlogs® & News

Nearby

Snow Depth

Station Depth Elevation
Beaver Head 2 in 7990 ft
Happy Jack 0 in 7630 ft
Snowslide Canyon 0 in 9730 ft
Workman Creek 1 in 6900 ft
Wildcat 0 in 7850 ft

Earthquake Activity

City Distance Mag. Time & Date
No recent earthquake activity has been reported nearby.
Minimum magnitude displayed is 2.5.

Coastal Water Temperatures

Place Temperature
No Stations Reporting

Nearby Weather Stations